sensor_id;sensor_type;location;lat;lon;timestamp;P1;durP1;ratioP1;P2;durP2;ratioP2
26177;SDS011;13924;47.670;10.310;2023-05-17T00:00:41;15.7;;;8.7;;
26177;SDS011;13924;47.670;10.310;2023-05-17T00:15:42;12.8;;;8.3;;
26177;SDS011;13924;47.670;10.310;2023-05-17T00:30:43;12.3;;;8.6;;
26177;SDS011;13924;47.670;10.310;2023-05-17T00:45:43;9.2;;;8.2;;
26177;SDS011;13924;47.670;10.310;2023-05-17T01:00:44;9.7;;;7.3;;
26177;SDS011;13924;47.670;10.310;2023-05-17T01:01:27;11.0;;;8.1;;
26177;SDS011;13924;47.670;10.310;2023-05-17T01:15:45;9.0;;;7.6;;
26177;SDS011;13924;47.670;10.310;2023-05-17T01:30:45;10.6;;;7.9;;
26177;SDS011;13924;47.670;10.310;2023-05-17T01:45:48;8.7;;;7.8;;
26177;SDS011;13924;47.670;10.310;2023-05-17T02:00:49;8.4;;;6.6;;
26177;SDS011;13924;47.670;10.310;2023-05-17T02:15:48;10.3;;;6.1;;
26177;SDS011;13924;47.670;10.310;2023-05-17T02:30:48;13.5;;;7.4;;
26177;SDS011;13924;47.670;10.310;2023-05-17T02:45:48;12.5;;;5.4;;
26177;SDS011;13924;47.670;10.310;2023-05-17T03:00:49;10.3;;;5.4;;
26177;SDS011;13924;47.670;10.310;2023-05-17T03:15:50;9.2;;;4.3;;
26177;SDS011;13924;47.670;10.310;2023-05-17T03:30:59;7.3;;;3.6;;
26177;SDS011;13924;47.670;10.310;2023-05-17T03:45:53;9.1;;;3.9;;
26177;SDS011;13924;47.670;10.310;2023-05-17T03:54:05;6.8;;;3.5;;
26177;SDS011;13924;47.670;10.310;2023-05-17T04:09:03;4.9;;;3.4;;
26177;SDS011;13924;47.670;10.310;2023-05-17T04:24:06;8.3;;;4.1;;
26177;SDS011;13924;47.670;10.310;2023-05-17T04:39:04;10.4;;;4.2;;
26177;SDS011;13924;47.670;10.310;2023-05-17T04:54:05;5.7;;;3.7;;
26177;SDS011;13924;47.670;10.310;2023-05-17T05:09:05;6.5;;;3.1;;
26177;SDS011;13924;47.670;10.310;2023-05-17T05:24:06;8.4;;;2.8;;
26177;SDS011;13924;47.670;10.310;2023-05-17T05:39:07;9.1;;;2.9;;
26177;SDS011;13924;47.670;10.310;2023-05-17T05:54:06;8.8;;;2.7;;
26177;SDS011;13924;47.670;10.310;2023-05-17T06:09:08;8.0;;;2.6;;
26177;SDS011;13924;47.670;10.310;2023-05-17T06:24:10;5.1;;;2.2;;
26177;SDS011;13924;47.670;10.310;2023-05-17T06:39:09;3.9;;;1.8;;
26177;SDS011;13924;47.670;10.310;2023-05-17T06:54:11;5.9;;;1.9;;
26177;SDS011;13924;47.670;10.310;2023-05-17T07:09:11;13.9;;;2.4;;
26177;SDS011;13924;47.670;10.310;2023-05-17T07:24:17;10.1;;;2.2;;
26177;SDS011;13924;47.670;10.310;2023-05-17T07:39:11;6.9;;;2.1;;
26177;SDS011;13924;47.670;10.310;2023-05-17T07:54:13;4.2;;;1.7;;
26177;SDS011;13924;47.670;10.310;2023-05-17T08:09:12;3.6;;;1.8;;
26177;SDS011;13924;47.670;10.310;2023-05-17T08:24:15;6.5;;;2.1;;
26177;SDS011;13924;47.670;10.310;2023-05-17T08:39:14;3.7;;;2.0;;
26177;SDS011;13924;47.670;10.310;2023-05-17T08:54:14;5.7;;;2.2;;
26177;SDS011;13924;47.670;10.310;2023-05-17T09:09:15;6.1;;;2.2;;
26177;SDS011;13924;47.670;10.310;2023-05-17T09:24:17;5.7;;;2.5;;
26177;SDS011;13924;47.670;10.310;2023-05-17T09:39:16;7.4;;;2.2;;
26177;SDS011;13924;47.670;10.310;2023-05-17T09:54:17;3.1;;;2.1;;
26177;SDS011;13924;47.670;10.310;2023-05-17T10:09:20;9.4;;;2.4;;
26177;SDS011;13924;47.670;10.310;2023-05-17T10:24:19;4.4;;;2.0;;
26177;SDS011;13924;47.670;10.310;2023-05-17T10:39:19;7.9;;;2.3;;
26177;SDS011;13924;47.670;10.310;2023-05-17T10:54:20;9.5;;;2.4;;
26177;SDS011;13924;47.670;10.310;2023-05-17T11:09:21;4.3;;;2.0;;
26177;SDS011;13924;47.670;10.310;2023-05-17T11:24:24;6.6;;;3.0;;
26177;SDS011;13924;47.670;10.310;2023-05-17T11:39:21;9.4;;;2.8;;
26177;SDS011;13924;47.670;10.310;2023-05-17T11:54:23;4.7;;;2.5;;
26177;SDS011;13924;47.670;10.310;2023-05-17T12:09:23;8.5;;;2.8;;
26177;SDS011;13924;47.670;10.310;2023-05-17T12:24:24;5.4;;;2.6;;
26177;SDS011;13924;47.670;10.310;2023-05-17T12:39:25;8.2;;;3.2;;
26177;SDS011;13924;47.670;10.310;2023-05-17T12:54:26;5.9;;;2.0;;
26177;SDS011;13924;47.670;10.310;2023-05-17T13:09:26;3.8;;;2.8;;
26177;SDS011;13924;47.670;10.310;2023-05-17T13:24:26;4.3;;;2.3;;
26177;SDS011;13924;47.670;10.310;2023-05-17T13:39:26;5.2;;;2.6;;
26177;SDS011;13924;47.670;10.310;2023-05-17T13:54:27;9.2;;;4.4;;
26177;SDS011;13924;47.670;10.310;2023-05-17T14:09:29;6.6;;;2.9;;
26177;SDS011;13924;47.670;10.310;2023-05-17T14:24:29;7.2;;;3.5;;
26177;SDS011;13924;47.670;10.310;2023-05-17T14:39:31;4.4;;;2.2;;
26177;SDS011;13924;47.670;10.310;2023-05-17T14:54:30;9.0;;;3.3;;
26177;SDS011;13924;47.670;10.310;2023-05-17T15:09:37;8.0;;;2.5;;
26177;SDS011;13924;47.670;10.310;2023-05-17T15:24:33;6.0;;;2.7;;
26177;SDS011;13924;47.670;10.310;2023-05-17T15:39:35;5.1;;;2.5;;
26177;SDS011;13924;47.670;10.310;2023-05-17T15:54:33;31.7;;;8.8;;
26177;SDS011;13924;47.670;10.310;2023-05-17T16:09:33;4.9;;;2.4;;
26177;SDS011;13924;47.670;10.310;2023-05-17T16:24:34;9.6;;;4.0;;
26177;SDS011;13924;47.670;10.310;2023-05-17T16:39:37;6.8;;;4.5;;
26177;SDS011;13924;47.670;10.310;2023-05-17T16:54:36;7.7;;;3.5;;
26177;SDS011;13924;47.670;10.310;2023-05-17T17:09:36;6.1;;;2.9;;
26177;SDS011;13924;47.670;10.310;2023-05-17T17:24:37;4.3;;;3.2;;
26177;SDS011;13924;47.670;10.310;2023-05-17T17:39:37;7.8;;;3.5;;
26177;SDS011;13924;47.670;10.310;2023-05-17T17:54:40;12.1;;;3.4;;
26177;SDS011;13924;47.670;10.310;2023-05-17T18:09:38;12.5;;;3.8;;
26177;SDS011;13924;47.670;10.310;2023-05-17T18:24:46;10.5;;;3.8;;
26177;SDS011;13924;47.670;10.310;2023-05-17T18:39:40;7.3;;;3.9;;
26177;SDS011;13924;47.670;10.310;2023-05-17T18:54:43;7.9;;;3.7;;
26177;SDS011;13924;47.670;10.310;2023-05-17T19:09:41;7.0;;;4.3;;
26177;SDS011;13924;47.670;10.310;2023-05-17T19:24:43;11.1;;;5.7;;
26177;SDS011;13924;47.670;10.310;2023-05-17T19:39:43;11.1;;;6.4;;
26177;SDS011;13924;47.670;10.310;2023-05-17T19:54:43;12.7;;;6.2;;
26177;SDS011;13924;47.670;10.310;2023-05-17T20:09:44;11.4;;;6.3;;
26177;SDS011;13924;47.670;10.310;2023-05-17T20:24:45;13.0;;;6.4;;
26177;SDS011;13924;47.670;10.310;2023-05-17T20:39:47;10.4;;;6.0;;
26177;SDS011;13924;47.670;10.310;2023-05-17T20:54:46;9.2;;;5.9;;
26177;SDS011;13924;47.670;10.310;2023-05-17T21:09:46;12.8;;;6.2;;
26177;SDS011;13924;47.670;10.310;2023-05-17T21:24:47;12.1;;;5.2;;
26177;SDS011;13924;47.670;10.310;2023-05-17T21:39:49;8.4;;;5.4;;
26177;SDS011;13924;47.670;10.310;2023-05-17T21:54:49;10.0;;;5.4;;
26177;SDS011;13924;47.670;10.310;2023-05-17T22:00:45;13.7;;;5.8;;
26177;SDS011;13924;47.670;10.310;2023-05-17T22:15:44;8.2;;;5.3;;
26177;SDS011;13924;47.670;10.310;2023-05-17T22:30:45;16.4;;;5.8;;
26177;SDS011;13924;47.670;10.310;2023-05-17T22:45:48;12.0;;;6.4;;
26177;SDS011;13924;47.670;10.310;2023-05-17T23:00:45;10.2;;;7.1;;
26177;SDS011;13924;47.670;10.310;2023-05-17T23:15:47;17.9;;;7.5;;
26177;SDS011;13924;47.670;10.310;2023-05-17T23:30:48;13.5;;;7.4;;
26177;SDS011;13924;47.670;10.310;2023-05-17T23:45:55;15.6;;;7.8;;
